sensor_id;sensor_type;location;lat;lon;timestamp;pressure;altitude;pressure_sealevel;temperature;humidity
62510;BME280;48558;48.242;11.654;2023-04-26T00:01:34;96169.31;;;5.98;100.00
62510;BME280;48558;48.242;11.654;2023-04-26T00:05:47;96163.50;;;5.96;100.00
62510;BME280;48558;48.242;11.654;2023-04-26T00:10:00;96169.19;;;5.89;100.00
62510;BME280;48558;48.242;11.654;2023-04-26T00:14:12;96154.81;;;5.97;100.00
62510;BME280;48558;48.242;11.654;2023-04-26T00:18:25;96142.91;;;6.04;100.00
62510;BME280;48558;48.242;11.654;2023-04-26T00:22:47;96142.66;;;5.86;100.00
62510;BME280;48558;48.242;11.654;2023-04-26T00:27:00;96145.41;;;5.98;100.00
62510;BME280;48558;48.242;11.654;2023-04-26T00:31:14;96150.22;;;5.94;100.00
62510;BME280;48558;48.242;11.654;2023-04-26T00:35:27;96148.03;;;6.02;100.00
62510;BME280;48558;48.242;11.654;2023-04-26T00:39:39;96152.44;;;5.99;100.00
62510;BME280;48558;48.242;11.654;2023-04-26T00:44:01;96158.88;;;5.93;100.00
62510;BME280;48558;48.242;11.654;2023-04-26T00:48:14;96150.56;;;5.96;100.00
62510;BME280;48558;48.242;11.654;2023-04-26T00:52:27;96150.25;;;6.07;100.00
62510;BME280;48558;48.242;11.654;2023-04-26T00:56:40;96140.56;;;5.90;100.00
62510;BME280;48558;48.242;11.654;2023-04-26T01:00:53;96156.88;;;5.80;100.00
62510;BME280;48558;48.242;11.654;2023-04-26T01:05:06;96152.19;;;5.94;100.00
62510;BME280;48558;48.242;11.654;2023-04-26T01:09:20;96154.94;;;6.06;100.00
62510;BME280;48558;48.242;11.654;2023-04-26T01:13:43;96148.13;;;5.86;100.00
62510;BME280;48558;48.242;11.654;2023-04-26T01:17:58;96172.06;;;5.98;100.00
62510;BME280;48558;48.242;11.654;2023-04-26T01:22:16;96162.19;;;5.88;100.00
62510;BME280;48558;48.242;11.654;2023-04-26T01:26:29;96165.91;;;5.94;100.00
62510;BME280;48558;48.242;11.654;2023-04-26T01:30:43;96158.69;;;5.71;100.00
62510;BME280;48558;48.242;11.654;2023-04-26T01:34:55;96168.00;;;5.90;100.00
62510;BME280;48558;48.242;11.654;2023-04-26T01:39:08;96173.22;;;5.84;100.00
62510;BME280;48558;48.242;11.654;2023-04-26T01:43:20;96177.34;;;5.76;100.00
62510;BME280;48558;48.242;11.654;2023-04-26T01:47:34;96173.72;;;5.79;100.00
62510;BME280;48558;48.242;11.654;2023-04-26T01:51:57;96186.69;;;5.78;100.00
62510;BME280;48558;48.242;11.654;2023-04-26T01:56:10;96172.38;;;5.87;100.00
62510;BME280;48558;48.242;11.654;2023-04-26T02:00:22;96165.81;;;5.68;100.00
62510;BME280;48558;48.242;11.654;2023-04-26T02:04:35;96165.16;;;5.64;100.00
62510;BME280;48558;48.242;11.654;2023-04-26T02:08:48;96176.78;;;5.68;100.00
62510;BME280;48558;48.242;11.654;2023-04-26T02:13:00;96180.88;;;5.76;100.00
62510;BME280;48558;48.242;11.654;2023-04-26T02:17:13;96180.88;;;5.76;100.00
62510;BME280;48558;48.242;11.654;2023-04-26T02:21:25;96183.81;;;5.69;100.00
62510;BME280;48558;48.242;11.654;2023-04-26T02:25:40;96182.59;;;5.70;100.00
62510;BME280;48558;48.242;11.654;2023-04-26T02:29:58;96179.50;;;5.68;100.00
62510;BME280;48558;48.242;11.654;2023-04-26T02:34:11;96175.34;;;5.64;100.00
62510;BME280;48558;48.242;11.654;2023-04-26T02:38:24;96180.47;;;5.62;100.00
62510;BME280;48558;48.242;11.654;2023-04-26T02:42:40;96179.84;;;5.70;100.00
62510;BME280;48558;48.242;11.654;2023-04-26T02:46:52;96171.28;;;5.68;100.00
62510;BME280;48558;48.242;11.654;2023-04-26T02:51:05;96175.59;;;5.82;100.00
62510;BME280;48558;48.242;11.654;2023-04-26T02:55:17;96170.09;;;5.69;100.00
62510;BME280;48558;48.242;11.654;2023-04-26T02:59:32;96163.97;;;5.78;100.00
62510;BME280;48558;48.242;11.654;2023-04-26T03:03:45;96158.03;;;5.67;100.00
62510;BME280;48558;48.242;11.654;2023-04-26T03:07:57;96161.88;;;5.69;100.00
62510;BME280;48558;48.242;11.654;2023-04-26T03:12:10;96170.97;;;5.66;100.00
62510;BME280;48558;48.242;11.654;2023-04-26T03:16:23;96173.88;;;5.59;100.00
62510;BME280;48558;48.242;11.654;2023-04-26T03:20:35;96177.88;;;5.42;100.00
62510;BME280;48558;48.242;11.654;2023-04-26T03:24:48;96175.66;;;5.37;100.00
62510;BME280;48558;48.242;11.654;2023-04-26T03:29:02;96179.22;;;5.50;100.00
62510;BME280;48558;48.242;11.654;2023-04-26T03:33:20;96176.63;;;5.59;100.00
62510;BME280;48558;48.242;11.654;2023-04-26T03:37:32;96179.59;;;5.36;100.00
62510;BME280;48558;48.242;11.654;2023-04-26T03:41:45;96186.81;;;5.30;100.00
62510;BME280;48558;48.242;11.654;2023-04-26T03:46:07;96189.84;;;5.48;100.00
62510;BME280;48558;48.242;11.654;2023-04-26T03:50:20;96198.50;;;5.47;100.00
62510;BME280;48558;48.242;11.654;2023-04-26T03:54:33;96196.72;;;5.40;100.00
62510;BME280;48558;48.242;11.654;2023-04-26T03:58:46;96191.59;;;5.42;100.00
62510;BME280;48558;48.242;11.654;2023-04-26T04:02:58;96186.41;;;5.16;100.00
62510;BME280;48558;48.242;11.654;2023-04-26T04:07:11;96188.78;;;5.30;100.00
62510;BME280;48558;48.242;11.654;2023-04-26T04:11:24;96200.13;;;5.44;100.00
62510;BME280;48558;48.242;11.654;2023-04-26T04:15:37;96199.81;;;5.42;100.00
62510;BME280;48558;48.242;11.654;2023-04-26T04:19:49;96199.19;;;5.51;100.00
62510;BME280;48558;48.242;11.654;2023-04-26T04:24:02;96206.25;;;5.36;100.00
62510;BME280;48558;48.242;11.654;2023-04-26T04:28:15;96202.47;;;5.14;100.00
62510;BME280;48558;48.242;11.654;2023-04-26T04:32:28;96217.03;;;5.27;100.00
62510;BME280;48558;48.242;11.654;2023-04-26T04:36:44;96211.34;;;5.34;100.00
62510;BME280;48558;48.242;11.654;2023-04-26T04:40:56;96215.66;;;5.19;100.00
62510;BME280;48558;48.242;11.654;2023-04-26T04:45:09;96226.59;;;5.35;100.00
62510;BME280;48558;48.242;11.654;2023-04-26T04:49:22;96226.09;;;5.40;100.00
62510;BME280;48558;48.242;11.654;2023-04-26T04:53:35;96238.31;;;5.51;100.00
62510;BME280;48558;48.242;11.654;2023-04-26T04:57:58;96228.47;;;5.54;100.00
62510;BME280;48558;48.242;11.654;2023-04-26T05:02:11;96242.47;;;5.72;100.00
62510;BME280;48558;48.242;11.654;2023-04-26T05:06:24;96243.53;;;5.62;100.00
62510;BME280;48558;48.242;11.654;2023-04-26T05:10:36;96251.13;;;5.70;100.00
62510;BME280;48558;48.242;11.654;2023-04-26T05:14:49;96256.56;;;5.58;100.00
62510;BME280;48558;48.242;11.654;2023-04-26T05:19:01;96262.41;;;5.72;100.00
62510;BME280;48558;48.242;11.654;2023-04-26T05:23:15;96266.59;;;5.93;100.00
62510;BME280;48558;48.242;11.654;2023-04-26T05:27:28;96257.59;;;6.21;100.00
62510;BME280;48558;48.242;11.654;2023-04-26T05:31:40;96254.84;;;5.93;100.00
62510;BME280;48558;48.242;11.654;2023-04-26T05:35:56;96262.53;;;5.85;100.00
62510;BME280;48558;48.242;11.654;2023-04-26T05:40:09;96264.66;;;6.35;100.00
62510;BME280;48558;48.242;11.654;2023-04-26T05:44:23;96260.63;;;6.52;100.00
62510;BME280;48558;48.242;11.654;2023-04-26T05:48:46;96278.44;;;6.73;100.00
62510;BME280;48558;48.242;11.654;2023-04-26T05:53:03;96265.16;;;6.84;100.00
62510;BME280;48558;48.242;11.654;2023-04-26T05:57:26;96260.22;;;6.91;100.00
62510;BME280;48558;48.242;11.654;2023-04-26T06:01:39;96269.75;;;6.62;100.00
62510;BME280;48558;48.242;11.654;2023-04-26T06:05:51;96271.72;;;6.61;100.00
62510;BME280;48558;48.242;11.654;2023-04-26T06:10:04;96274.50;;;6.86;100.00
62510;BME280;48558;48.242;11.654;2023-04-26T06:14:17;96287.13;;;6.71;100.00
62510;BME280;48558;48.242;11.654;2023-04-26T06:18:50;96289.41;;;6.60;100.00
62510;BME280;48558;48.242;11.654;2023-04-26T06:23:03;96285.72;;;6.92;100.00
62510;BME280;48558;48.242;11.654;2023-04-26T06:27:15;96281.06;;;6.76;100.00
62510;BME280;48558;48.242;11.654;2023-04-26T06:31:28;96284.81;;;7.33;100.00
62510;BME280;48558;48.242;11.654;2023-04-26T06:35:41;96279.63;;;6.72;100.00
62510;BME280;48558;48.242;11.654;2023-04-26T06:39:54;96277.09;;;7.40;100.00
62510;BME280;48558;48.242;11.654;2023-04-26T06:44:06;96277.81;;;7.19;100.00
62510;BME280;48558;48.242;11.654;2023-04-26T06:48:19;96276.88;;;7.47;100.00
62510;BME280;48558;48.242;11.654;2023-04-26T06:52:41;96286.53;;;7.64;100.00
62510;BME280;48558;48.242;11.654;2023-04-26T06:56:54;96298.09;;;7.59;100.00
62510;BME280;48558;48.242;11.654;2023-04-26T07:01:13;96304.44;;;8.03;100.00
62510;BME280;48558;48.242;11.654;2023-04-26T07:05:25;96302.78;;;8.61;100.00
62510;BME280;48558;48.242;11.654;2023-04-26T07:09:38;96295.91;;;8.44;100.00
62510;BME280;48558;48.242;11.654;2023-04-26T07:13:51;96297.59;;;8.08;100.00
62510;BME280;48558;48.242;11.654;2023-04-26T07:18:04;96293.06;;;8.48;100.00
62510;BME280;48558;48.242;11.654;2023-04-26T07:22:21;96302.59;;;8.87;100.00
62510;BME280;48558;48.242;11.654;2023-04-26T07:26:34;96298.94;;;8.37;100.00
62510;BME280;48558;48.242;11.654;2023-04-26T07:30:48;96296.38;;;9.35;100.00
62510;BME280;48558;48.242;11.654;2023-04-26T07:35:05;96286.47;;;9.07;100.00
62510;BME280;48558;48.242;11.654;2023-04-26T07:39:26;96295.56;;;8.86;100.00
62510;BME280;48558;48.242;11.654;2023-04-26T07:43:49;96300.09;;;8.49;100.00
62510;BME280;48558;48.242;11.654;2023-04-26T07:48:02;96289.38;;;9.03;100.00
62510;BME280;48558;48.242;11.654;2023-04-26T07:52:15;96292.28;;;9.39;100.00
62510;BME280;48558;48.242;11.654;2023-04-26T07:56:27;96298.81;;;9.24;100.00
62510;BME280;48558;48.242;11.654;2023-04-26T08:00:40;96292.97;;;9.80;100.00
62510;BME280;48558;48.242;11.654;2023-04-26T08:05:00;96303.28;;;10.61;100.00
62510;BME280;48558;48.242;11.654;2023-04-26T08:09:13;96297.03;;;10.51;100.00
62510;BME280;48558;48.242;11.654;2023-04-26T08:13:26;96310.28;;;9.71;100.00
62510;BME280;48558;48.242;11.654;2023-04-26T08:17:39;96296.88;;;10.37;100.00
62510;BME280;48558;48.242;11.654;2023-04-26T08:21:52;96291.09;;;9.50;100.00
62510;BME280;48558;48.242;11.654;2023-04-26T08:26:15;96285.22;;;11.43;100.00
62510;BME280;48558;48.242;11.654;2023-04-26T08:30:27;96285.44;;;12.35;100.00
62510;BME280;48558;48.242;11.654;2023-04-26T08:34:40;96289.84;;;12.56;88.76
62510;BME280;48558;48.242;11.654;2023-04-26T08:38:54;96283.69;;;11.99;94.26
62510;BME280;48558;48.242;11.654;2023-04-26T08:43:09;96291.81;;;10.44;97.33
62510;BME280;48558;48.242;11.654;2023-04-26T08:47:38;96276.50;;;10.94;100.00
62510;BME280;48558;48.242;11.654;2023-04-26T08:51:55;96284.69;;;9.80;100.00
62510;BME280;48558;48.242;11.654;2023-04-26T08:56:21;96280.25;;;9.73;100.00
62510;BME280;48558;48.242;11.654;2023-04-26T09:00:35;96277.78;;;9.75;97.07
62510;BME280;48558;48.242;11.654;2023-04-26T09:04:54;96285.63;;;10.58;96.75
62510;BME280;48558;48.242;11.654;2023-04-26T09:09:08;96283.88;;;10.88;83.42
62510;BME280;48558;48.242;11.654;2023-04-26T09:13:27;96286.03;;;11.68;82.51
62510;BME280;48558;48.242;11.654;2023-04-26T09:17:40;96274.59;;;11.09;81.60
62510;BME280;48558;48.242;11.654;2023-04-26T09:21:53;96285.03;;;10.09;89.82
62510;BME280;48558;48.242;11.654;2023-04-26T09:26:18;96287.03;;;9.90;100.00
62510;BME280;48558;48.242;11.654;2023-04-26T09:30:37;96287.38;;;10.20;100.00
62510;BME280;48558;48.242;11.654;2023-04-26T09:34:50;96283.06;;;10.28;100.00
62510;BME280;48558;48.242;11.654;2023-04-26T09:39:03;96278.38;;;10.79;92.59
62510;BME280;48558;48.242;11.654;2023-04-26T09:43:17;96263.84;;;10.69;85.68
62510;BME280;48558;48.242;11.654;2023-04-26T09:47:31;96265.19;;;9.56;96.52
62510;BME280;48558;48.242;11.654;2023-04-26T09:52:04;96276.09;;;10.77;90.50
62510;BME280;48558;48.242;11.654;2023-04-26T09:56:18;96281.81;;;10.65;87.52
62510;BME280;48558;48.242;11.654;2023-04-26T10:00:32;96279.13;;;13.71;89.82
62510;BME280;48558;48.242;11.654;2023-04-26T10:04:47;96264.56;;;14.16;64.10
62510;BME280;48558;48.242;11.654;2023-04-26T10:09:01;96274.72;;;13.99;71.02
62510;BME280;48558;48.242;11.654;2023-04-26T10:13:18;96277.44;;;12.95;72.30
62510;BME280;48558;48.242;11.654;2023-04-26T10:17:30;96260.28;;;12.38;77.86
62510;BME280;48558;48.242;11.654;2023-04-26T10:21:44;96266.13;;;12.40;68.94
62510;BME280;48558;48.242;11.654;2023-04-26T10:31:02;96264.13;;;13.43;57.09
62510;BME280;48558;48.242;11.654;2023-04-26T10:35:17;96262.63;;;13.82;64.20
62510;BME280;48558;48.242;11.654;2023-04-26T10:39:31;96259.00;;;12.77;58.40
62510;BME280;48558;48.242;11.654;2023-04-26T10:43:43;96244.59;;;12.20;64.14
62510;BME280;48558;48.242;11.654;2023-04-26T10:48:15;96251.44;;;10.10;98.99
62510;BME280;48558;48.242;11.654;2023-04-26T10:52:37;96247.09;;;10.64;93.65
62510;BME280;48558;48.242;11.654;2023-04-26T10:57:13;96250.06;;;10.42;100.00
62510;BME280;48558;48.242;11.654;2023-04-26T11:01:29;96240.41;;;11.30;92.64
62510;BME280;48558;48.242;11.654;2023-04-26T11:05:52;96230.53;;;13.41;72.75
62510;BME280;48558;48.242;11.654;2023-04-26T11:10:09;96239.28;;;14.34;67.54
62510;BME280;48558;48.242;11.654;2023-04-26T11:14:22;96220.59;;;14.35;66.71
62510;BME280;48558;48.242;11.654;2023-04-26T11:18:35;96211.72;;;14.31;60.88
62510;BME280;48558;48.242;11.654;2023-04-26T11:22:52;96220.50;;;14.04;57.93
62510;BME280;48558;48.242;11.654;2023-04-26T11:27:12;96217.28;;;13.71;56.40
62510;BME280;48558;48.242;11.654;2023-04-26T11:31:24;96199.09;;;14.87;52.08
62510;BME280;48558;48.242;11.654;2023-04-26T11:35:37;96211.22;;;13.32;61.46
62510;BME280;48558;48.242;11.654;2023-04-26T11:39:51;96212.41;;;12.67;58.86
62510;BME280;48558;48.242;11.654;2023-04-26T11:44:04;96214.63;;;12.34;63.42
62510;BME280;48558;48.242;11.654;2023-04-26T11:48:18;96211.81;;;13.96;66.37
62510;BME280;48558;48.242;11.654;2023-04-26T11:52:40;96213.22;;;13.31;54.73
62510;BME280;48558;48.242;11.654;2023-04-26T11:56:53;96214.41;;;16.35;56.83
62510;BME280;48558;48.242;11.654;2023-04-26T12:01:06;96212.75;;;13.93;48.15
62510;BME280;48558;48.242;11.654;2023-04-26T12:05:27;96216.78;;;14.84;48.86
62510;BME280;48558;48.242;11.654;2023-04-26T12:09:43;96216.44;;;13.64;48.76
62510;BME280;48558;48.242;11.654;2023-04-26T12:13:57;96215.19;;;13.11;51.31
62510;BME280;48558;48.242;11.654;2023-04-26T12:18:10;96204.38;;;12.83;50.55
62510;BME280;48558;48.242;11.654;2023-04-26T12:22:23;96206.19;;;13.16;50.55
62510;BME280;48558;48.242;11.654;2023-04-26T12:26:43;96212.41;;;15.08;46.94
62510;BME280;48558;48.242;11.654;2023-04-26T12:30:59;96202.44;;;13.04;47.48
62510;BME280;48558;48.242;11.654;2023-04-26T12:35:12;96206.66;;;13.89;49.20
62510;BME280;48558;48.242;11.654;2023-04-26T12:39:31;96205.97;;;13.74;50.01
62510;BME280;48558;48.242;11.654;2023-04-26T12:43:43;96206.56;;;15.01;54.15
62510;BME280;48558;48.242;11.654;2023-04-26T12:47:56;96194.53;;;12.82;56.68
62510;BME280;48558;48.242;11.654;2023-04-26T12:52:08;96193.75;;;12.96;57.37
62510;BME280;48558;48.242;11.654;2023-04-26T12:56:21;96197.66;;;13.05;54.30
62510;BME280;48558;48.242;11.654;2023-04-26T13:00:35;96190.66;;;13.24;52.04
62510;BME280;48558;48.242;11.654;2023-04-26T13:04:47;96167.41;;;13.21;54.27
62510;BME280;48558;48.242;11.654;2023-04-26T13:09:00;96180.97;;;13.34;52.31
62510;BME280;48558;48.242;11.654;2023-04-26T13:13:13;96176.56;;;14.08;53.39
62510;BME280;48558;48.242;11.654;2023-04-26T13:17:29;96171.94;;;15.07;49.14
62510;BME280;48558;48.242;11.654;2023-04-26T13:21:42;96177.22;;;13.97;50.28
62510;BME280;48558;48.242;11.654;2023-04-26T13:25:55;96175.03;;;13.61;50.39
62510;BME280;48558;48.242;11.654;2023-04-26T13:30:08;96180.13;;;13.48;54.48
62510;BME280;48558;48.242;11.654;2023-04-26T13:34:21;96170.53;;;13.29;49.75
62510;BME280;48558;48.242;11.654;2023-04-26T13:38:33;96178.78;;;14.50;53.08
62510;BME280;48558;48.242;11.654;2023-04-26T13:42:46;96175.22;;;14.23;48.18
62510;BME280;48558;48.242;11.654;2023-04-26T13:46:58;96156.84;;;14.52;47.74
62510;BME280;48558;48.242;11.654;2023-04-26T13:51:11;96162.03;;;13.93;50.12
62510;BME280;48558;48.242;11.654;2023-04-26T13:55:26;96155.06;;;13.22;50.06
62510;BME280;48558;48.242;11.654;2023-04-26T13:59:40;96154.88;;;13.46;53.50
62510;BME280;48558;48.242;11.654;2023-04-26T14:03:53;96156.91;;;13.45;50.90
62510;BME280;48558;48.242;11.654;2023-04-26T14:08:06;96149.25;;;13.40;51.08
62510;BME280;48558;48.242;11.654;2023-04-26T14:12:19;96151.63;;;14.33;49.55
62510;BME280;48558;48.242;11.654;2023-04-26T14:16:35;96142.13;;;13.54;54.38
62510;BME280;48558;48.242;11.654;2023-04-26T14:20:48;96148.78;;;13.07;54.89
62510;BME280;48558;48.242;11.654;2023-04-26T14:25:00;96147.78;;;13.25;50.90
62510;BME280;48558;48.242;11.654;2023-04-26T14:29:13;96150.75;;;14.79;48.05
62510;BME280;48558;48.242;11.654;2023-04-26T14:33:25;96158.06;;;13.79;49.72
62510;BME280;48558;48.242;11.654;2023-04-26T14:37:38;96150.25;;;15.59;47.59
62510;BME280;48558;48.242;11.654;2023-04-26T14:41:50;96141.31;;;16.03;44.81
62510;BME280;48558;48.242;11.654;2023-04-26T14:46:07;96141.34;;;16.14;44.64
62510;BME280;48558;48.242;11.654;2023-04-26T14:50:19;96136.78;;;16.33;43.61
62510;BME280;48558;48.242;11.654;2023-04-26T14:54:37;96146.09;;;15.01;46.92
62510;BME280;48558;48.242;11.654;2023-04-26T14:58:50;96144.41;;;13.55;48.80
62510;BME280;48558;48.242;11.654;2023-04-26T15:03:02;96145.19;;;12.86;52.54
62510;BME280;48558;48.242;11.654;2023-04-26T15:07:15;96135.03;;;13.53;50.54
62510;BME280;48558;48.242;11.654;2023-04-26T15:11:42;96150.16;;;12.82;53.19
62510;BME280;48558;48.242;11.654;2023-04-26T15:15:54;96133.78;;;13.54;52.14
62510;BME280;48558;48.242;11.654;2023-04-26T15:20:08;96134.28;;;12.83;52.84
62510;BME280;48558;48.242;11.654;2023-04-26T15:24:21;96136.09;;;12.37;56.17
62510;BME280;48558;48.242;11.654;2023-04-26T15:28:44;96131.06;;;13.59;52.81
62510;BME280;48558;48.242;11.654;2023-04-26T15:32:56;96136.44;;;13.43;50.02
62510;BME280;48558;48.242;11.654;2023-04-26T15:37:09;96129.06;;;13.40;52.10
62510;BME280;48558;48.242;11.654;2023-04-26T15:41:22;96123.78;;;13.62;52.86
62510;BME280;48558;48.242;11.654;2023-04-26T15:45:35;96122.38;;;14.44;49.76
62510;BME280;48558;48.242;11.654;2023-04-26T15:49:48;96115.81;;;14.78;48.49
62510;BME280;48558;48.242;11.654;2023-04-26T15:54:01;96131.78;;;14.00;49.76
62510;BME280;48558;48.242;11.654;2023-04-26T15:58:13;96133.06;;;12.69;53.87
62510;BME280;48558;48.242;11.654;2023-04-26T16:02:26;96133.69;;;12.15;54.88
62510;BME280;48558;48.242;11.654;2023-04-26T16:06:39;96142.00;;;12.30;58.48
62510;BME280;48558;48.242;11.654;2023-04-26T16:10:51;96135.97;;;12.31;55.70
62510;BME280;48558;48.242;11.654;2023-04-26T16:15:05;96137.22;;;12.45;55.77
62510;BME280;48558;48.242;11.654;2023-04-26T16:19:19;96134.44;;;12.15;56.76
62510;BME280;48558;48.242;11.654;2023-04-26T16:23:31;96133.50;;;12.33;56.06
62510;BME280;48558;48.242;11.654;2023-04-26T16:27:44;96135.41;;;12.27;58.34
62510;BME280;48558;48.242;11.654;2023-04-26T16:31:56;96145.97;;;11.85;59.82
62510;BME280;48558;48.242;11.654;2023-04-26T16:36:09;96140.69;;;11.72;60.89
62510;BME280;48558;48.242;11.654;2023-04-26T16:40:22;96148.88;;;12.05;61.99
62510;BME280;48558;48.242;11.654;2023-04-26T16:44:34;96136.38;;;12.39;61.00
62510;BME280;48558;48.242;11.654;2023-04-26T16:48:47;96127.66;;;12.31;63.93
62510;BME280;48558;48.242;11.654;2023-04-26T16:52:59;96127.00;;;12.07;59.88
62510;BME280;48558;48.242;11.654;2023-04-26T16:57:12;96138.81;;;11.54;62.31
62510;BME280;48558;48.242;11.654;2023-04-26T17:01:25;96135.09;;;11.58;60.33
62510;BME280;48558;48.242;11.654;2023-04-26T17:05:42;96138.69;;;11.49;62.74
62510;BME280;48558;48.242;11.654;2023-04-26T17:09:56;96139.22;;;11.38;61.30
62510;BME280;48558;48.242;11.654;2023-04-26T17:14:09;96149.81;;;11.16;65.18
62510;BME280;48558;48.242;11.654;2023-04-26T17:18:21;96151.00;;;11.24;68.33
62510;BME280;48558;48.242;11.654;2023-04-26T17:22:34;96151.53;;;11.37;69.65
62510;BME280;48558;48.242;11.654;2023-04-26T17:26:47;96159.63;;;11.17;63.15
62510;BME280;48558;48.242;11.654;2023-04-26T17:31:10;96158.75;;;11.11;66.22
62510;BME280;48558;48.242;11.654;2023-04-26T17:35:33;96167.59;;;11.01;68.56
62510;BME280;48558;48.242;11.654;2023-04-26T17:39:51;96165.25;;;10.75;70.77
62510;BME280;48558;48.242;11.654;2023-04-26T17:44:03;96178.94;;;10.61;69.22
62510;BME280;48558;48.242;11.654;2023-04-26T17:48:24;96176.81;;;10.65;70.70
62510;BME280;48558;48.242;11.654;2023-04-26T17:52:37;96183.00;;;10.42;77.63
62510;BME280;48558;48.242;11.654;2023-04-26T17:56:50;96181.78;;;10.25;76.10
62510;BME280;48558;48.242;11.654;2023-04-26T18:01:05;96182.13;;;10.27;83.67
62510;BME280;48558;48.242;11.654;2023-04-26T18:05:18;96181.81;;;10.16;79.45
62510;BME280;48558;48.242;11.654;2023-04-26T18:09:40;96189.47;;;10.02;83.50
62510;BME280;48558;48.242;11.654;2023-04-26T18:13:52;96196.56;;;9.76;87.20
62510;BME280;48558;48.242;11.654;2023-04-26T18:18:05;96203.25;;;9.48;96.45
62510;BME280;48558;48.242;11.654;2023-04-26T18:22:19;96201.72;;;9.29;90.50
62510;BME280;48558;48.242;11.654;2023-04-26T18:26:31;96211.16;;;9.19;92.88
62510;BME280;48558;48.242;11.654;2023-04-26T18:30:44;96216.03;;;9.06;99.70
62510;BME280;48558;48.242;11.654;2023-04-26T18:34:56;96218.03;;;8.65;100.00
62510;BME280;48558;48.242;11.654;2023-04-26T18:39:09;96216.13;;;8.53;100.00
62510;BME280;48558;48.242;11.654;2023-04-26T18:43:21;96211.97;;;8.49;100.00
62510;BME280;48558;48.242;11.654;2023-04-26T18:47:44;96220.69;;;8.26;100.00
62510;BME280;48558;48.242;11.654;2023-04-26T18:51:56;96227.28;;;8.07;100.00
62510;BME280;48558;48.242;11.654;2023-04-26T18:56:09;96231.47;;;7.98;100.00
62510;BME280;48558;48.242;11.654;2023-04-26T19:00:21;96238.72;;;7.83;100.00
62510;BME280;48558;48.242;11.654;2023-04-26T19:04:34;96234.78;;;7.72;100.00
62510;BME280;48558;48.242;11.654;2023-04-26T19:08:47;96248.44;;;7.63;100.00
62510;BME280;48558;48.242;11.654;2023-04-26T19:12:59;96227.63;;;7.40;100.00
62510;BME280;48558;48.242;11.654;2023-04-26T19:17:12;96256.75;;;7.38;100.00
62510;BME280;48558;48.242;11.654;2023-04-26T19:21:24;96239.53;;;7.24;100.00
62510;BME280;48558;48.242;11.654;2023-04-26T19:25:37;96244.91;;;7.15;100.00
62510;BME280;48558;48.242;11.654;2023-04-26T19:29:51;96248.22;;;7.10;100.00
62510;BME280;48558;48.242;11.654;2023-04-26T19:34:03;96261.88;;;7.14;100.00
62510;BME280;48558;48.242;11.654;2023-04-26T19:38:16;96256.34;;;7.27;100.00
62510;BME280;48558;48.242;11.654;2023-04-26T19:42:28;96251.16;;;7.29;100.00
62510;BME280;48558;48.242;11.654;2023-04-26T19:46:41;96257.03;;;7.05;100.00
62510;BME280;48558;48.242;11.654;2023-04-26T19:50:53;96258.56;;;6.94;100.00
62510;BME280;48558;48.242;11.654;2023-04-26T19:55:06;96264.50;;;7.05;100.00
62510;BME280;48558;48.242;11.654;2023-04-26T19:59:21;96265.16;;;6.84;100.00
62510;BME280;48558;48.242;11.654;2023-04-26T20:03:33;96267.13;;;6.71;100.00
62510;BME280;48558;48.242;11.654;2023-04-26T20:07:46;96264.47;;;6.55;100.00
62510;BME280;48558;48.242;11.654;2023-04-26T20:12:09;96268.06;;;6.51;100.00
62510;BME280;48558;48.242;11.654;2023-04-26T20:16:22;96262.03;;;6.44;100.00
62510;BME280;48558;48.242;11.654;2023-04-26T20:20:34;96263.75;;;6.25;100.00
62510;BME280;48558;48.242;11.654;2023-04-26T20:24:48;96261.91;;;6.06;100.00
62510;BME280;48558;48.242;11.654;2023-04-26T20:29:00;96270.13;;;5.94;100.00
62510;BME280;48558;48.242;11.654;2023-04-26T20:33:13;96274.88;;;6.06;100.00
62510;BME280;48558;48.242;11.654;2023-04-26T20:37:25;96280.91;;;6.01;100.00
62510;BME280;48558;48.242;11.654;2023-04-26T20:41:38;96280.41;;;5.90;100.00
62510;BME280;48558;48.242;11.654;2023-04-26T20:45:50;96279.03;;;5.81;100.00
62510;BME280;48558;48.242;11.654;2023-04-26T20:50:13;96280.59;;;5.66;100.00
62510;BME280;48558;48.242;11.654;2023-04-26T20:54:26;96283.44;;;5.63;100.00
62510;BME280;48558;48.242;11.654;2023-04-26T20:58:39;96291.22;;;5.64;100.00
62510;BME280;48558;48.242;11.654;2023-04-26T21:02:52;96291.22;;;5.80;100.00
62510;BME280;48558;48.242;11.654;2023-04-26T21:07:04;96292.06;;;5.94;100.00
62510;BME280;48558;48.242;11.654;2023-04-26T21:11:17;96296.38;;;6.07;100.00
62510;BME280;48558;48.242;11.654;2023-04-26T21:15:29;96294.13;;;6.18;100.00
62510;BME280;48558;48.242;11.654;2023-04-26T21:19:42;96284.44;;;6.14;100.00
62510;BME280;48558;48.242;11.654;2023-04-26T21:23:55;96292.03;;;6.10;100.00
62510;BME280;48558;48.242;11.654;2023-04-26T21:28:08;96288.19;;;6.20;100.00
62510;BME280;48558;48.242;11.654;2023-04-26T21:32:20;96293.16;;;6.25;100.00
62510;BME280;48558;48.242;11.654;2023-04-26T21:36:33;96281.84;;;6.23;100.00
62510;BME280;48558;48.242;11.654;2023-04-26T21:40:45;96288.78;;;6.27;100.00
62510;BME280;48558;48.242;11.654;2023-04-26T21:44:57;96275.59;;;6.22;100.00
62510;BME280;48558;48.242;11.654;2023-04-26T21:49:10;96283.59;;;6.17;100.00
62510;BME280;48558;48.242;11.654;2023-04-26T21:53:22;96288.19;;;6.20;100.00
62510;BME280;48558;48.242;11.654;2023-04-26T21:57:35;96298.84;;;6.18;100.00
62510;BME280;48558;48.242;11.654;2023-04-26T22:01:47;96289.84;;;6.17;100.00
62510;BME280;48558;48.242;11.654;2023-04-26T22:06:00;96295.28;;;6.05;100.00
62510;BME280;48558;48.242;11.654;2023-04-26T22:10:12;96299.25;;;6.04;100.00
62510;BME280;48558;48.242;11.654;2023-04-26T22:14:25;96306.19;;;6.08;100.00